Puerto Banus, Marbella

>

This is an optional block (switch it off / on) in the settings - file ($SITE['banners'] = false;)

You can display ads, any other important text or photo’s using text / html or PHP code.

You can place one or more at the top and or bottom and it can all be different for content / size .



Meteosat more information blitzortung!


Radar lluvias  rain snow radar


Visita nuestra red de sitios de meteo:

Documentation for the template used

MeteoibericaRed estaciones Meteorologicas

MeteoclimaticRed estaciones Meteorologicas



Sin Advertencias climatologicas .En este momento tenemos Nivel Verde.    No hay Alarmas

Pagina Historial Weather Underground texto

Diario Resumen Diciembre 3, 2017 Unidades:  Métrico    impérial   Tanto
« Anterior Dia
Siguiente Dia »
Diario Semana Mensual Anual Personalizada
  Maxima: Minima: Media:
Temperatura: -17.8 °C -12.5 °C -11.1 °C
Punto de rocío: -17.8 °C -21.7 °C -17 °C
Humedad: Humidity % 26 % 51 %
Velocidad del Viento: 0 km/h 0 km/h 35.9 km/h
Ráfagas de viento: 0 km/h - -
Viento:- - ESE
Pression baro: 0 hPa 34591.4 hPa -
Précipitaciones: 0 mm    
Historical Graphs
 
 
Datos de tabla para Diciembre 3, 2017
Tiempo Temperatura Punto de rocío Pression baro Viento Velocidad del Viento Ráfagas de viento Humedad Las precipitaciones Rate ( Hora )
-17.8 °C -17.8 °C 0 hPa Calm     Humidity % 0 mm
00:09 -11.2 °C -18.7 °C 34635.4 hPa North 29.8 km/h 29.8 km/h 39 % 0 mm
00:14 -11.2 °C -18.7 °C 34635.4 hPa NNW 29.8 km/h 29.8 km/h 39 % 0 mm
00:19 -11.2 °C -18.7 °C 34635.4 hPa NNE 23.8 km/h 23.8 km/h 39 % 0 mm
00:34 -11.2 °C -18.7 °C 34635.4 hPa NE 26.9 km/h 26.9 km/h 39 % 0 mm
00:39 -11.2 °C -18.4 °C 34635.4 hPa NE 20.8 km/h 20.8 km/h 41 % 0 mm
00:44 -11.3 °C -18.6 °C 34635.4 hPa NNE 20.9 km/h 20.9 km/h 40 % 0 mm
00:49 -11.3 °C -18.7 °C 34635.4 hPa NNE 35.7 km/h 35.7 km/h 40 % 0 mm
00:59 -11.3 °C -18.7 °C 34625.2 hPa NNE 38.8 km/h 38.8 km/h 40 % 0 mm
01:04 -11.3 °C -18.7 °C 34625.2 hPa NNE 50.7 km/h 50.7 km/h 40 % 0 mm
01:09 -11.3 °C -18.8 °C 34611.7 hPa North 41.7 km/h 41.7 km/h 39 % 0 mm
01:14 -11.3 °C -18.7 °C 34611.7 hPa North 36.2 km/h 36.2 km/h 40 % 0 mm
01:24 -11.4 °C -18.7 °C 34611.7 hPa NNW 35.7 km/h 35.7 km/h 40 % 0 mm
01:34 -11.3 °C -18.8 °C 34611.7 hPa NNE 59.5 km/h 59.5 km/h 39 % 0 mm
01:54 -11.3 °C -18.8 °C 34611.7 hPa NNW 44.7 km/h 44.7 km/h 39 % 0 mm
01:59 -11.2 °C -18.9 °C 34611.7 hPa NNE 44.7 km/h 44.7 km/h 38 % 0 mm
02:04 -11.2 °C -18.9 °C 34601.5 hPa North 44.7 km/h 44.7 km/h 38 % 0 mm
02:19 -11.1 °C -18.8 °C 34601.5 hPa WNW 32.8 km/h 32.8 km/h 38 % 0 mm
02:29 -11.2 °C -19.3 °C 34601.5 hPa NNW 44.7 km/h 44.7 km/h 36 % 0 mm
02:39 -11.1 °C -19.2 °C 34601.5 hPa NNW 65.5 km/h 65.5 km/h 36 % 0 mm
02:44 -11.1 °C -19.1 °C 34601.5 hPa North 35.7 km/h 35.7 km/h 37 % 0 mm
02:49 -11.1 °C -19.2 °C 34601.5 hPa NNE 23.3 km/h 23.3 km/h 36 % 0 mm
02:54 -11.1 °C -19 °C 34601.5 hPa NNE 17.9 km/h 17.9 km/h 37 % 0 mm
02:59 -11.2 °C -19.3 °C 34601.5 hPa North 56.6 km/h 56.6 km/h 36 % 0 mm
03:04 -11.2 °C -19.3 °C 34591.4 hPa NE 54.4 km/h 54.4 km/h 36 % 0 mm
03:09 -11.2 °C -19.3 °C 34591.4 hPa North 51.8 km/h 51.8 km/h 36 % 0 mm
03:19 -11.2 °C -19.3 °C 34591.4 hPa WNW 62.6 km/h 62.6 km/h 36 % 0 mm
03:24 -11.2 °C -19.1 °C 34601.5 hPa NE 47.6 km/h 47.6 km/h 37 % 0 mm
03:29 -11.2 °C -19.3 °C 34601.5 hPa NNE 38.8 km/h 38.8 km/h 36 % 0 mm
03:34 -11.1 °C -19.9 °C 34601.5 hPa North 41.7 km/h 41.7 km/h 33 % 0 mm
03:49 -11.3 °C -19.4 °C 34601.5 hPa West 41.7 km/h 41.7 km/h 36 % 0 mm
03:54 -11.3 °C -19.6 °C 34601.5 hPa North 59.5 km/h 59.5 km/h 35 % 0 mm
03:59 -11.3 °C -19.4 °C 34601.5 hPa North 38.8 km/h 38.8 km/h 36 % 0 mm
04:05 -11.3 °C -19.4 °C 34601.5 hPa North 25.9 km/h 25.9 km/h 36 % 0 mm
04:10 -11.3 °C -19.6 °C 34601.5 hPa North 38.8 km/h 38.8 km/h 35 % 0 mm
04:15 -11.3 °C -19.6 °C 34601.5 hPa NNE 20.9 km/h 20.9 km/h 35 % 0 mm
04:20 -11.2 °C -20.2 °C 34601.5 hPa NNE 44.7 km/h 44.7 km/h 32 % 0 mm
04:30 -11 °C -20.1 °C 34601.5 hPa NNE 56.6 km/h 56.6 km/h 32 % 0 mm
04:35 -10.9 °C -20.2 °C 34601.5 hPa NNE 23.8 km/h 23.8 km/h 31 % 0 mm
04:40 -10.9 °C -20.2 °C 34601.5 hPa NE 11.9 km/h 11.9 km/h 31 % 0 mm
04:45 -10.9 °C -20.2 °C 34611.7 hPa NNW 38.8 km/h 38.8 km/h 31 % 0 mm
04:50 -11 °C -20.5 °C 34601.5 hPa NNE 28.5 km/h 28.5 km/h 30 % 0 mm
04:55 -11.1 °C -20.5 °C 34611.7 hPa NNE 29.8 km/h 29.8 km/h 30 % 0 mm
05:00 -11.1 °C -20.5 °C 34611.7 hPa NNE 35.7 km/h 35.7 km/h 30 % 0 mm
05:10 -11.2 °C -20.2 °C 34611.7 hPa North 44.7 km/h 44.7 km/h 32 % 0 mm
05:15 -11.2 °C -20.2 °C 34611.7 hPa North 29.8 km/h 29.8 km/h 32 % 0 mm
05:20 -11.2 °C -20 °C 34611.7 hPa NNE 50.7 km/h 50.7 km/h 33 % 0 mm
05:25 -11.3 °C -20.1 °C 34601.5 hPa NNE 38.8 km/h 38.8 km/h 33 % 0 mm
05:30 -11.3 °C -19.9 °C 34601.5 hPa NNE 44.7 km/h 44.7 km/h 34 % 0 mm
05:35 -11.4 °C -19.9 °C 34601.5 hPa NNE 35.7 km/h 35.7 km/h 34 % 0 mm
05:40 -11.5 °C -19.8 °C 34601.5 hPa NNW 47.6 km/h 47.6 km/h 35 % 0 mm
06:00 -11.6 °C -19.8 °C 34601.5 hPa NNE 69.8 km/h 69.8 km/h 35 % 0 mm
06:05 -11.5 °C -20 °C 34611.7 hPa North 68.6 km/h 68.6 km/h 34 % 0 mm
06:10 -11.4 °C -19.9 °C 34611.7 hPa North 12.9 km/h 75.2 km/h 34 % 0 mm
06:15 -11.5 °C -19.8 °C 34611.7 hPa NNE 68.6 km/h 68.6 km/h 35 % 0 mm
06:25 -11.6 °C -19.8 °C 34611.7 hPa NNW 56.6 km/h 56.6 km/h 35 % 0 mm
06:30 -11.6 °C -20.1 °C 34611.7 hPa NE 41.7 km/h 41.7 km/h 34 % 0 mm
06:35 -11.5 °C -20.2 °C 34611.7 hPa North 12.9 km/h 59.5 km/h 33 % 0 mm
06:40 -11.6 °C -19.7 °C 34611.7 hPa North 33.6 km/h 69.8 km/h 36 % 0 mm
06:45 -11.7 °C -19.6 °C 34611.7 hPa NE 68.6 km/h 68.6 km/h 37 % 0 mm
06:50 -11.8 °C -19.6 °C 34625.2 hPa NNE 41.4 km/h 41.4 km/h 37 % 0 mm
06:55 -11.7 °C -19.8 °C 34625.2 hPa NNE 51.8 km/h 51.8 km/h 36 % 0 mm
07:05 -11.8 °C -19.8 °C 34625.2 hPa NNE 62.6 km/h 62.6 km/h 36 % 0 mm
07:10 -11.8 °C -19.8 °C 34625.2 hPa NNW 62.6 km/h 62.6 km/h 36 % 0 mm
07:15 -11.8 °C -20.2 °C 34625.2 hPa NNW 62.6 km/h 62.6 km/h 34 % 0 mm
07:20 -11.8 °C -19.9 °C 34625.2 hPa NW 38.8 km/h 38.8 km/h 36 % 0 mm
07:25 -11.8 °C -19.9 °C 34625.2 hPa North 29.8 km/h 29.8 km/h 36 % 0 mm
07:35 -11.9 °C -19.9 °C 34635.4 hPa NNE 59.5 km/h 59.5 km/h 36 % 0 mm
07:40 -11.9 °C -19.8 °C 34635.4 hPa NNW 46.7 km/h 46.7 km/h 37 % 0 mm
07:45 -12 °C -20 °C 34635.4 hPa North 35.7 km/h 35.7 km/h 36 % 0 mm
07:50 -11.8 °C -20.1 °C 34645.6 hPa SW 9 km/h 9 km/h 35 % 0 mm
07:55 -11.8 °C -19.9 °C 34635.4 hPa North 44.7 km/h 44.7 km/h 36 % 0 mm
07:56 -11.8 °C -19.9 °C 34635.4 hPa NNE 44.7 km/h 44.7 km/h 36 % 0 mm
08:01 -11.8 °C -20.1 °C 34645.6 hPa NNW 41.7 km/h 41.7 km/h 35 % 0 mm
08:11 -12 °C -20.2 °C 34645.6 hPa North 77.4 km/h 77.4 km/h 35 % 0 mm
08:16 -12.1 °C -19.7 °C 34659.1 hPa North 68.6 km/h 68.6 km/h 38 % 0 mm
08:21 -12.2 °C -19.6 °C 34659.1 hPa NNW 41.4 km/h 41.4 km/h 39 % 0 mm
08:26 -12.2 °C -19.6 °C 34645.6 hPa NNW 29.8 km/h 29.8 km/h 39 % 0 mm
08:31 -12.2 °C -19.3 °C 34659.1 hPa North 33.6 km/h 33.6 km/h 41 % 0 mm
08:36 -12.3 °C -19.5 °C 34659.1 hPa North 57 km/h 57 km/h 40 % 0 mm
08:41 -12.3 °C -19.7 °C 34659.1 hPa NNW 46.7 km/h 46.7 km/h 39 % 0 mm
08:46 -12.3 °C -19.7 °C 34659.1 hPa NE 35.7 km/h 35.7 km/h 39 % 0 mm
08:51 -12.3 °C -19.7 °C 34659.1 hPa North 29.8 km/h 29.8 km/h 39 % 0 mm
08:56 -12.3 °C -19.8 °C 34669.3 hPa North 59.5 km/h 59.5 km/h 38 % 0 mm
09:01 -12.3 °C -19.8 °C 34659.1 hPa NNE 51.8 km/h 51.8 km/h 38 % 0 mm
09:06 -12.2 °C -20 °C 34659.1 hPa North 50.7 km/h 50.7 km/h 37 % 0 mm
09:11 -12.2 °C -19.9 °C 34669.3 hPa North 59.5 km/h 59.5 km/h 37 % 0 mm
09:16 -12.2 °C -20.2 °C 34669.3 hPa NNE 71.5 km/h 71.5 km/h 36 % 0 mm
09:21 -12.1 °C -20.3 °C 34682.8 hPa North 71.5 km/h 71.5 km/h 35 % 0 mm
09:26 -12.1 °C -20.6 °C 34669.3 hPa NE 56.6 km/h 56.6 km/h 34 % 0 mm
09:31 -12.1 °C -20.5 °C 34682.8 hPa NE 71.5 km/h 71.5 km/h 34 % 0 mm
09:36 -12.1 °C -20.6 °C 34669.3 hPa NE 62.6 km/h 62.6 km/h 34 % 0 mm
09:41 -12.1 °C -20.9 °C 34682.8 hPa NE 71.5 km/h 71.5 km/h 32 % 0 mm
09:46 -12.1 °C -21.2 °C 34669.3 hPa NNE 74.5 km/h 74.5 km/h 31 % 0 mm
09:56 -11.8 °C -20.7 °C 34682.8 hPa NE 53.6 km/h 53.6 km/h 32 % 0 mm
10:11 -11.8 °C -21 °C 34682.8 hPa North 65.5 km/h 65.5 km/h 31 % 0 mm
10:16 -11.8 °C -21.2 °C 34682.8 hPa NNE 59.5 km/h 59.5 km/h 30 % 0 mm
10:36 -11.5 °C -21.7 °C 34703.1 hPa NW 35.7 km/h 35.7 km/h 27 % 0 mm
10:41 -11.4 °C -21.6 °C 34703.1 hPa NNE 23.3 km/h 23.3 km/h 27 % 0 mm
10:46 -11.3 °C -19.2 °C 34716.7 hPa ESE 35.7 km/h 35.7 km/h 37 % 0 mm
10:51 -11.3 °C -21.3 °C 34716.7 hPa ESE 5.1 km/h 5.1 km/h 28 % 0 mm
10:56 -11.2 °C -21.5 °C 34716.7 hPa NW 26.9 km/h 26.9 km/h 27 % 0 mm
11:01 -11.2 °C -20.9 °C 34716.7 hPa WNW 9 km/h 9 km/h 29 % 0 mm
11:06 -11.2 °C -20.9 °C 34716.7 hPa ESE 11.9 km/h 11.9 km/h 29 % 0 mm
11:11 -11.2 °C -20.9 °C 34716.7 hPa South 9 km/h 9 km/h 29 % 0 mm
11:16 -11 °C -21.3 °C 34716.7 hPa South 3.1 km/h   27 % 0 mm
11:21 -10.9 °C -21.2 °C 34716.7 hPa North 11.9 km/h 11.9 km/h 27 % 0 mm
11:26 -10.9 °C -20.9 °C 34716.7 hPa Calm     28 % 0 mm
11:32 -10.9 °C -20.9 °C 34716.7 hPa NNE 9 km/h 9 km/h 28 % 0 mm
11:37 -10.8 °C -21.3 °C 34716.7 hPa Calm     26 % 0 mm
11:42 -10.6 °C -20.9 °C 34716.7 hPa NW 9 km/h 9 km/h 27 % 0 mm
11:47 -10.7 °C -20.7 °C 34716.7 hPa North 29.8 km/h 29.8 km/h 28 % 0 mm
11:52 -10.8 °C -20.6 °C 34716.7 hPa NNE 17.9 km/h 17.9 km/h 29 % 0 mm
11:57 -10.7 °C -21 °C 34716.7 hPa NNW 26.9 km/h 26.9 km/h 27 % 0 mm
12:02 -10.6 °C -20.7 °C 34716.7 hPa North 23.8 km/h 23.8 km/h 28 % 0 mm
12:07 -10.5 °C -20.6 °C 34716.7 hPa North 17.9 km/h 17.9 km/h 28 % 0 mm
12:12 -10.4 °C -20.5 °C 34716.7 hPa NW 20.9 km/h 20.9 km/h 28 % 0 mm
12:17 -10.4 °C -20.2 °C 34716.7 hPa NNW 18.2 km/h 18.2 km/h 29 % 0 mm
12:22 -10.3 °C -19.6 °C 34716.7 hPa North 11.9 km/h 11.9 km/h 31 % 0 mm
12:27 -10.2 °C -18.9 °C 34716.7 hPa ESE 20.9 km/h 20.9 km/h 34 % 0 mm
12:32 -10.2 °C -18.5 °C 34716.7 hPa East 32.8 km/h 32.8 km/h 36 % 0 mm
12:37 -10.2 °C -18 °C 34716.7 hPa ENE 36.2 km/h 36.2 km/h 38 % 0 mm
12:42 -10.2 °C -17.9 °C 34703.1 hPa ENE 38.8 km/h 38.8 km/h 38 % 0 mm
12:47 -10.1 °C -18.2 °C 34703.1 hPa ENE 26.9 km/h 26.9 km/h 37 % 0 mm
12:52 -10.1 °C -18.4 °C 34703.1 hPa East 44.7 km/h 44.7 km/h 36 % 0 mm
12:57 -10.1 °C -17.9 °C 34716.7 hPa East 41.7 km/h 41.7 km/h 38 % 0 mm
13:02 -10.1 °C -18.2 °C 34716.7 hPa ENE 29.8 km/h 29.8 km/h 37 % 0 mm
13:07 -10.1 °C -17.6 °C 34716.7 hPa ENE 32.8 km/h 32.8 km/h 40 % 0 mm
13:12 -10.1 °C -17.2 °C 34716.7 hPa East 26.9 km/h 26.9 km/h 42 % 0 mm
13:17 -10.1 °C -17.3 °C 34716.7 hPa East 41.7 km/h 41.7 km/h 41 % 0 mm
13:18 -10.1 °C -17.3 °C 34716.7 hPa ENE 41.7 km/h 41.7 km/h 41 % 0 mm
13:23 -10.1 °C -17.1 °C 34716.7 hPa East 25.9 km/h 25.9 km/h 42 % 0 mm
13:28 -10.1 °C -17.3 °C 34716.7 hPa East 26.9 km/h 26.9 km/h 41 % 0 mm
13:38 -10.1 °C -16.7 °C 34716.7 hPa ESE 38.8 km/h 38.8 km/h 44 % 0 mm
13:43 -10.1 °C -15.6 °C 34716.7 hPa East 53.6 km/h 53.6 km/h 51 % 0 mm
13:48 -10.1 °C -15.7 °C 34716.7 hPa East 47.6 km/h 47.6 km/h 51 % 0 mm
13:53 -10.1 °C -15.1 °C 34716.7 hPa East 50.7 km/h 50.7 km/h 55 % 0 mm
13:58 -10.2 °C -14.9 °C 34716.7 hPa ESE 41.7 km/h 41.7 km/h 56 % 0 mm
14:03 -10.1 °C -15.1 °C 34703.1 hPa East 53.6 km/h 53.6 km/h 55 % 0 mm
14:08 -10.2 °C -14.9 °C 34716.7 hPa ESE 44.7 km/h 44.7 km/h 56 % 0 mm
14:13 -10.2 °C -14.8 °C 34703.1 hPa East 62.6 km/h 62.6 km/h 57 % 0 mm
14:18 -10.2 °C -14.6 °C 34716.7 hPa East 59.5 km/h 59.5 km/h 59 % 0 mm
14:23 -10.2 °C -15.1 °C 34716.7 hPa East 50.7 km/h 50.7 km/h 56 % 0 mm
14:28 -10.2 °C -14.8 °C 34703.1 hPa East 54.4 km/h 54.4 km/h 57 % 0 mm
14:33 -10.2 °C -14.4 °C 34703.1 hPa East 57 km/h 57 km/h 60 % 0 mm
14:38 -10.2 °C -14.4 °C 34716.7 hPa ENE 50.7 km/h 50.7 km/h 60 % 0 mm
14:43 -10.2 °C -14.4 °C 34703.1 hPa ENE 57 km/h 57 km/h 60 % 0 mm
14:49 -10.2 °C -14.4 °C 34703.1 hPa ENE 59.5 km/h 59.5 km/h 60 % 0 mm
14:54 -10.2 °C -14.1 °C 34716.7 hPa East 59.5 km/h 59.5 km/h 63 % 0 mm
14:59 -10.2 °C -14.3 °C 34716.7 hPa East 56.6 km/h 56.6 km/h 61 % 0 mm
15:04 -10.2 °C -14.2 °C 34716.7 hPa East 50.7 km/h 50.7 km/h 62 % 0 mm
15:09 -10.2 °C -14.2 °C 34716.7 hPa East 50.7 km/h 50.7 km/h 62 % 0 mm
15:14 -10.2 °C -14.4 °C 34716.7 hPa ENE 32.8 km/h 32.8 km/h 60 % 0 mm
15:19 -10.2 °C -14.1 °C 34716.7 hPa East 41.7 km/h 41.7 km/h 62 % 0 mm
15:24 -10.2 °C -14 °C 34716.7 hPa ENE 32.8 km/h 32.8 km/h 63 % 0 mm
15:29 -10.1 °C -14.1 °C 34716.7 hPa East 35.7 km/h 35.7 km/h 62 % 0 mm
15:34 -10.1 °C -13.7 °C 34716.7 hPa East 47.6 km/h 47.6 km/h 65 % 0 mm
15:39 -10.1 °C -13.6 °C 34716.7 hPa ENE 47.6 km/h 47.6 km/h 66 % 0 mm
15:44 -10.1 °C -13.6 °C 34716.7 hPa ENE 41.7 km/h 41.7 km/h 66 % 0 mm
15:49 -10.1 °C -13.7 °C 34716.7 hPa ENE 35.7 km/h 35.7 km/h 65 % 0 mm
15:54 -10.1 °C -14.6 °C 34716.7 hPa ENE 35.7 km/h 35.7 km/h 58 % 0 mm
15:59 -10.1 °C -14.3 °C 34716.7 hPa ENE 38.8 km/h 38.8 km/h 60 % 0 mm
16:04 -10.1 °C -13.9 °C 34716.7 hPa ENE 41.7 km/h 41.7 km/h 63 % 0 mm
16:09 -10.1 °C -13.9 °C 34716.7 hPa ENE 33.6 km/h 33.6 km/h 63 % 0 mm
16:14 -10.1 °C -13.9 °C 34716.7 hPa East 35.7 km/h 35.7 km/h 63 % 0 mm
16:19 -10.1 °C -14.2 °C 34716.7 hPa ENE 31.1 km/h 31.1 km/h 61 % 0 mm
16:24 -10.1 °C -14.1 °C 34726.8 hPa ENE 32.8 km/h 32.8 km/h 62 % 0 mm
16:29 -10.1 °C -13.9 °C 34726.8 hPa ENE 29.8 km/h 29.8 km/h 63 % 0 mm
16:34 -10 °C -13.4 °C 34726.8 hPa ENE 33.6 km/h 33.6 km/h 67 % 0 mm
16:39 -10.1 °C -13.5 °C 34726.8 hPa ESE 41.7 km/h 41.7 km/h 66 % 0 mm
16:44 -10 °C -13.2 °C 34726.8 hPa ESE 44.7 km/h 44.7 km/h 68 % 0 mm
16:49 -10 °C -13.2 °C 34726.8 hPa East 47.6 km/h 47.6 km/h 68 % 0 mm
16:54 -10 °C -13.2 °C 34726.8 hPa East 41.7 km/h 41.7 km/h 68 % 0 mm
16:59 -9.9 °C -13.1 °C 34740.4 hPa East 44.7 km/h 44.7 km/h 69 % 0 mm
17:04 -9.9 °C -13.1 °C 34740.4 hPa ESE 41.4 km/h 41.4 km/h 69 % 0 mm
17:09 -9.9 °C -13.1 °C 34740.4 hPa ESE 44.7 km/h 44.7 km/h 69 % 0 mm
17:14 -10 °C -13 °C 34740.4 hPa East 35.7 km/h 35.7 km/h 70 % 0 mm
17:19 -10.1 °C -13.2 °C 34740.4 hPa ESE 41.7 km/h 41.7 km/h 69 % 0 mm
17:24 -9.9 °C -13.1 °C 34740.4 hPa East 44.7 km/h 44.7 km/h 69 % 0 mm
17:29 -10 °C -13.2 °C 34740.4 hPa East 38.8 km/h 38.8 km/h 68 % 0 mm
17:34 -10 °C -13 °C 34740.4 hPa ENE 38.8 km/h 38.8 km/h 70 % 0 mm
17:39 -10.1 °C -13.2 °C 34740.4 hPa ENE 41.7 km/h 41.7 km/h 69 % 0 mm
17:44 -10.1 °C -13.2 °C 34740.4 hPa ENE 44.7 km/h 44.7 km/h 69 % 0 mm
17:49 -10.1 °C -13.2 °C 34750.5 hPa East 41.7 km/h 41.7 km/h 69 % 0 mm
17:54 -10.1 °C -13.3 °C 34750.5 hPa ESE 44.7 km/h 44.7 km/h 68 % 0 mm
17:59 -9.9 °C -12.9 °C 34750.5 hPa ESE 38.8 km/h 38.8 km/h 70 % 0 mm
18:04 -10.1 °C -13.2 °C 34750.5 hPa East 44.7 km/h 44.7 km/h 69 % 0 mm
18:09 -10.1 °C -13.3 °C 34750.5 hPa East 44.7 km/h 44.7 km/h 68 % 0 mm
18:15 -10 °C -13 °C 34750.5 hPa East 41.7 km/h 41.7 km/h 70 % 0 mm
18:19 -10.1 °C -13.3 °C 34760.7 hPa East 35.7 km/h 35.7 km/h 68 % 0 mm
18:25 -10.1 °C -13.3 °C 34760.7 hPa ENE 35.7 km/h 35.7 km/h 68 % 0 mm
18:30 -10.1 °C -13.2 °C 34760.7 hPa East 38.8 km/h 38.8 km/h 69 % 0 mm
18:35 -10.2 °C -13.4 °C 34760.7 hPa ENE 32.8 km/h 32.8 km/h 68 % 0 mm
18:40 -10.2 °C -13.3 °C 34774.2 hPa ENE 26.9 km/h 26.9 km/h 69 % 0 mm
18:45 -10.2 °C -13.3 °C 34774.2 hPa ENE 29.8 km/h 29.8 km/h 69 % 0 mm
18:50 -10.2 °C -13.3 °C 34774.2 hPa NE 31.1 km/h 31.1 km/h 69 % 0 mm
18:55 -10.2 °C -13.2 °C 34774.2 hPa ENE 36.2 km/h 36.2 km/h 70 % 0 mm
19:00 -10.2 °C -13.3 °C 34774.2 hPa ENE 32.8 km/h 32.8 km/h 69 % 0 mm
19:05 -10.2 °C -13.3 °C 34774.2 hPa ENE 32.8 km/h 32.8 km/h 69 % 0 mm
19:10 -10.2 °C -13.3 °C 34774.2 hPa ENE 29.8 km/h 29.8 km/h 69 % 0 mm
19:15 -10.2 °C -13.2 °C 34784.4 hPa ENE 29.8 km/h 29.8 km/h 70 % 0 mm
19:20 -10.3 °C -13.3 °C 34784.4 hPa NE 23.8 km/h 23.8 km/h 70 % 0 mm
19:25 -10.4 °C -13.5 °C 34784.4 hPa NE 18.2 km/h 23.3 km/h 69 % 0 mm
19:30 -10.4 °C -13.4 °C 34784.4 hPa NE 11.9 km/h 11.9 km/h 70 % 0 mm
19:35 -10.5 °C -13.5 °C 34784.4 hPa NE 12.9 km/h 18.2 km/h 70 % 0 mm
19:40 -10.6 °C -13.6 °C 34784.4 hPa NE 12.9 km/h 12.9 km/h 70 % 0 mm
19:45 -10.7 °C -13.7 °C 34797.9 hPa NE 12.9 km/h 15.6 km/h 70 % 0 mm
19:50 -10.7 °C -13.7 °C 34797.9 hPa NE 20.9 km/h 20.9 km/h 70 % 0 mm
19:55 -10.7 °C -13.7 °C 34797.9 hPa NE 12.9 km/h 15.6 km/h 70 % 0 mm
20:00 -10.7 °C -13.8 °C 34797.9 hPa NE 11.9 km/h 11.9 km/h 69 % 0 mm
20:05 -10.7 °C -13.8 °C 34797.9 hPa NE 12.9 km/h 18.2 km/h 69 % 0 mm
20:10 -10.8 °C -13.8 °C 34797.9 hPa NE 15 km/h 15 km/h 69 % 0 mm
20:15 -10.8 °C -14.1 °C 34797.9 hPa NE 7.7 km/h 15.6 km/h 68 % 0 mm
20:20 -10.9 °C -14.1 °C 34808.1 hPa NNE 5.1 km/h 10.3 km/h 68 % 0 mm
20:25 -11.2 °C -14.3 °C 34797.9 hPa North 11.9 km/h 11.9 km/h 68 % 0 mm
20:26 -11.2 °C -14.3 °C 34808.1 hPa North 10.3 km/h 10.3 km/h 68 % 0 mm
20:31 -11.3 °C -14.4 °C 34808.1 hPa North 11.9 km/h 11.9 km/h 69 % 0 mm
20:36 -11.4 °C -14.5 °C 34808.1 hPa North 11.9 km/h 11.9 km/h 69 % 0 mm
20:41 -11.6 °C -14.5 °C 34808.1 hPa North 15.6 km/h 15.6 km/h 70 % 0 mm
20:46 -11.6 °C -14.4 °C 34808.1 hPa North 23.8 km/h 23.8 km/h 71 % 0 mm
20:51 -11.7 °C -14.5 °C 34808.1 hPa NNE 20.9 km/h 20.9 km/h 71 % 0 mm
20:56 -11.7 °C -14.6 °C 34808.1 hPa NNE 17.9 km/h 17.9 km/h 71 % 0 mm
21:01 -11.8 °C -14.6 °C 34808.1 hPa North 15.6 km/h 15.6 km/h 71 % 0 mm
21:06 -11.8 °C -14.5 °C 34808.1 hPa North 18.2 km/h 18.2 km/h 72 % 0 mm
21:11 -11.8 °C -14.6 °C 34818.2 hPa North 18.2 km/h 18.2 km/h 72 % 0 mm
21:16 -11.9 °C -14.6 °C 34818.2 hPa North 18.2 km/h 18.2 km/h 72 % 0 mm
21:21 -11.9 °C -14.6 °C 34818.2 hPa NNE 23.8 km/h 23.8 km/h 72 % 0 mm
21:26 -11.9 °C -14.6 °C 34818.2 hPa North 23.3 km/h 23.3 km/h 72 % 0 mm
21:31 -11.9 °C -14.6 °C 34818.2 hPa NNE 26.9 km/h 26.9 km/h 72 % 0 mm
21:36 -11.9 °C -14.6 °C 34818.2 hPa NNE 17.9 km/h 17.9 km/h 72 % 0 mm
21:41 -12 °C -14.7 °C 34818.2 hPa North 26.9 km/h 26.9 km/h 72 % 0 mm
21:46 -12 °C -14.7 °C 34818.2 hPa North 26.9 km/h 26.9 km/h 72 % 0 mm
21:51 -12 °C -14.6 °C 34818.2 hPa North 23.8 km/h 23.8 km/h 73 % 0 mm
21:56 -12.1 °C -14.6 °C 34818.2 hPa North 26.9 km/h 26.9 km/h 73 % 0 mm
22:01 -12.1 °C -14.6 °C 34818.2 hPa NNW 29.8 km/h 29.8 km/h 73 % 0 mm
22:06 -12.1 °C -14.6 °C 34818.2 hPa NNE 20.9 km/h 20.9 km/h 73 % 0 mm
22:11 -12.1 °C -14.7 °C 34831.8 hPa North 29.8 km/h 29.8 km/h 73 % 0 mm
22:16 -12.1 °C -14.7 °C 34831.8 hPa North 29.8 km/h 29.8 km/h 73 % 0 mm
22:17 -12.1 °C -14.7 °C 34831.8 hPa North 29.8 km/h 29.8 km/h 73 % 0 mm
22:22 -12.1 °C -14.7 °C 34831.8 hPa North 29.8 km/h 29.8 km/h 73 % 0 mm
22:27 -12.2 °C -14.7 °C 34831.8 hPa NNE 26.9 km/h 26.9 km/h 73 % 0 mm
22:32 -12.1 °C -14.7 °C 34831.8 hPa NNE 29.8 km/h 29.8 km/h 73 % 0 mm
22:37 -12.2 °C -14.7 °C 34831.8 hPa North 29.8 km/h 29.8 km/h 73 % 0 mm
22:42 -12.2 °C -14.8 °C 34831.8 hPa North 29.8 km/h 29.8 km/h 73 % 0 mm
22:47 -12.2 °C -14.8 °C 34831.8 hPa NNE 26.9 km/h 26.9 km/h 73 % 0 mm
22:52 -12.2 °C -14.8 °C 34831.8 hPa North 29.8 km/h 29.8 km/h 73 % 0 mm
22:57 -12.2 °C -14.8 °C 34831.8 hPa NNE 29.8 km/h 29.8 km/h 73 % 0 mm
23:02 -12.3 °C -14.8 °C 34831.8 hPa NNE 29.8 km/h 29.8 km/h 73 % 0 mm
23:07 -12.3 °C -14.8 °C 34841.9 hPa NNE 28.5 km/h 28.5 km/h 73 % 0 mm
23:12 -12.3 °C -14.9 °C 34841.9 hPa North 26.9 km/h 26.9 km/h 73 % 0 mm
23:17 -12.3 °C -14.9 °C 34841.9 hPa NNE 29.8 km/h 29.8 km/h 73 % 0 mm
23:22 -12.3 °C -14.9 °C 34841.9 hPa North 26.9 km/h 26.9 km/h 73 % 0 mm
23:27 -12.4 °C -14.9 °C 34841.9 hPa North 26.9 km/h 26.9 km/h 73 % 0 mm
23:32 -12.4 °C -15.1 °C 34841.9 hPa North 28.5 km/h 28.5 km/h 73 % 0 mm
23:37 -12.5 °C -14.9 °C 34841.9 hPa North 29.8 km/h 29.8 km/h 74 % 0 mm
23:42 -12.5 °C -14.9 °C 34841.9 hPa North 29.8 km/h 29.8 km/h 74 % 0 mm
23:47 -12.5 °C -14.9 °C 34841.9 hPa North 35.7 km/h 35.7 km/h 74 % 0 mm
23:52 -12.4 °C -14.9 °C 34841.9 hPa NNE 32.8 km/h 32.8 km/h 74 % 0 mm
23:57 -12.4 °C -14.9 °C 34852.1 hPa North 28.5 km/h 28.5 km/h 74 % 0 mm
Puerto Banus, Marbella
Elogios de Weather Underground - 2.25 mb

Guión original por  Jim McMurry - jmcmurry@mwt.net Adaptado para la plantilla por  Wim van der Kuil - Leuven-Template.eu

Usted encontrará nuestra información del tiempo también en:

Weather Underground

Iberian Peninsula Weather Network